Pont Aven — FNPN — position and weather

sailwx.info

Track history (hours):
 
Tides and Currents Weather Stations Pressure Air Temp Water Temp Dewpoint Dewpoint Depression Visibility Wind Speed Wind Dir Waves Ship Positions

Pont Aven

Last reported at 2020-Jul-11 08:01 UTC. Time now 2020-Jul-11 08:17 UTC.
Position N 51°50' W 008°20'.

Length 185 m; beam 31 m.

Type: Passenger vessel. MMSI: 228183600.

Date/timePositionNaut miles runAvg speedWind from/ knotsBaromVisibWave heightAir tempDewpointWater temp
2020-Jul-11 08:01N 51°50' W 008°20'13118.7
2020-Jul-11 01:01N 50°17' W 005°54'12012.0
2020-Jul-10 15:01N 48°43' W 003°57'7 4.8
2020-Jul-10 13:31N 48°50' W 003°52'7 5.0
2020-Jul-10 12:01N 48°43' W 003°58'6 0.8
2020-Jul-10 05:15N 48°49' W 003°56'3511.0
2020-Jul-10 02:03N 49°24' W 004°04'2111.5
2020-Jul-10 00:14N 49°45' W 004°08'2611.5
2020-Jul-09 22:01N 50°10' W 004°10'10 4.6
2020-Jul-09 19:56N 50°20' W 004°10'5 1.2
2020-Jul-09 16:00N 50°15' W 004°12'2322.3
2020-Jul-09 15:00N 49°53' W 004°23'7221.6
2020-Jul-09 11:39N 48°44' W 004°52'321.8
2020-Jul-09 11:30N 48°41' W 004°53'1919.1
2020-Jul-09 10:30N 48°23' W 005°05'3221.2
2020-Jul-09 09:01N 47°52' W 005°06'1122.4
2020-Jul-09 08:30N 47°41' W 005°03'3422.7
2020-Jul-09 07:00N 47°07' W 004°55'2222.5
2020-Jul-09 06:01N 46°46' W 004°44'6822.8
2020-Jul-09 03:00N 45°38' W 004°25'11523.0
2020-Jul-08 22:01N 43°46' W 003°49'1912.4
2020-Jul-08 20:29N 43°28' W 003°48'4 1.3
2020-Jul-08 17:11N 43°31' W 003°46'423.5
2020-Jul-08 17:01N 43°35' W 003°46'3523.0
2020-Jul-08 15:30N 44°10' W 003°53'3523.0
2020-Jul-08 14:01N 44°44' W 004°01'1122.7
2020-Jul-08 13:31N 44°55' W 004°03'1122.9
2020-Jul-08 13:01N 45°06' W 004°05'1223.1
2020-Jul-08 12:31N 45°18' W 004°08'3523.2
2020-Jul-08 11:00N 45°52' W 004°16'13023.7
2020-Jul-08 05:31N 48°01' W 004°44'4317.2
2020-Jul-08 03:01N 48°44' W 004°38'9423.5
2020-Jul-07 23:01N 49°53' W 003°02'2221.1
2020-Jul-07 21:59N 50°03' W 002°31'2919.6
2020-Jul-07 20:30N 50°16' W 001°51'4020.1
2020-Jul-07 18:30N 50°39' W 000°59'10 4.2
2020-Jul-07 16:00N 50°49' W 001°06'0 0.0
2020-Jul-07 15:00N 50°49' W 001°06'3 3.1
2020-Jul-07 14:01N 50°46' W 001°05'1212.0
2020-Jul-07 13:00N 50°34' W 001°09'3623.4
2020-Jul-07 11:28N 50°13' W 001°55'1224.6
2020-Jul-07 10:58N 50°04' W 002°08'8524.6
2020-Jul-07 07:31N 49°12' W 003°51'5024.8
2020-Jul-07 05:30N 48°38' W 004°46'1223.8
2020-Jul-07 05:00N 48°29' W 004°58'3221.3
2020-Jul-07 03:30N 47°58' W 005°09'1223.7
2020-Jul-07 03:00N 47°46' W 005°05'7122.9
2020-Jul-06 23:53N 46°37' W 004°42'19316.2
2020-Jul-06 12:00N 43°28' W 003°48'4 3.6
2020-Jul-06 10:52N 43°31' W 003°46'29623.0
2020-Jul-05 22:00N 48°22' W 005°06'12621.0
2020-Jul-05 16:00N 50°22' W 004°09'0 0.0
2020-Jul-05 15:30N 50°22' W 004°09'6 2.2
2020-Jul-05 12:31N 50°15' W 004°09'4120.4
2020-Jul-05 10:30N 49°35' W 003°56'44 6.8
2020-Jul-05 04:01N 48°52' W 004°05'2221.5
2020-Jul-05 03:00N 49°06' W 004°30'2520.7
2020-Jul-05 01:48N 49°22' W 004°59'19514.7
2020-Jul-04 12:30N 51°50' W 008°19'0 0.0
2020-Jul-04 11:30N 51°50' W 008°19'25113.2
2020-Jul-03 16:30N 48°43' W 003°58'0 0.0
2020-Jul-03 15:54N 48°43' W 003°58'0 0.0
2020-Jul-03 15:12N 48°43' W 003°58'5 5.7
2020-Jul-03 14:22N 48°47' W 003°53'1 1.8
2020-Jul-03 13:53N 48°47' W 003°55'1 1.5
2020-Jul-03 13:27N 48°46' W 003°55'3 1.1
2020-Jul-03 10:18N 48°43' W 003°58'0 0.0
2020-Jul-03 10:00N 48°43' W 003°58'0 0.0
2020-Jul-03 09:29N 48°43' W 003°58'0 0.0
2020-Jul-03 08:51N 48°43' W 003°58'0 0.0
2020-Jul-03 08:29N 48°43' W 003°58'92 7.7
2020-Jul-02 20:30N 50°15' W 004°11'7 6.8
2020-Jul-02 19:30N 50°22' W 004°09'0 0.0
2020-Jul-02 18:30N 50°22' W 004°09'5 1.8
2020-Jul-02 16:01N 50°17' W 004°11'9521.1
2020-Jul-02 11:30N 48°46' W 004°52'1021.4
2020-Jul-02 11:00N 48°36' W 004°56'918.7
2020-Jul-02 10:30N 48°27' W 005°01'1919.0
2020-Jul-02 09:30N 48°09' W 005°09'1121.2
2020-Jul-02 09:00N 47°58' W 005°08'27719.1
2020-Jul-01 18:30N 43°28' W 003°48'  
Track history (hours):
 
Tides and Currents Weather Stations Pressure Air Temp Water Temp Dewpoint Dewpoint Depression Visibility Wind Speed Wind Dir Waves Ship Positions

Pont Aven

Last reported at 2020-Jul-11 08:01 UTC. Time now 2020-Jul-11 08:17 UTC.
Position N 51°50' W 008°20'.

Length 185 m; beam 31 m.

Type: Passenger vessel. MMSI: 228183600.

Date/timePositionNaut miles runAvg speedWind from/ knotsBaromVisibWave heightAir tempDewpointWater temp
2020-Jul-11 08:01N 51°50' W 008°20'13118.7
2020-Jul-11 01:01N 50°17' W 005°54'12012.0
2020-Jul-10 15:01N 48°43' W 003°57'7 4.8
2020-Jul-10 13:31N 48°50' W 003°52'7 5.0
2020-Jul-10 12:01N 48°43' W 003°58'6 0.8
2020-Jul-10 05:15N 48°49' W 003°56'3511.0
2020-Jul-10 02:03N 49°24' W 004°04'2111.5
2020-Jul-10 00:14N 49°45' W 004°08'2611.5
2020-Jul-09 22:01N 50°10' W 004°10'10 4.6
2020-Jul-09 19:56N 50°20' W 004°10'5 1.2
2020-Jul-09 16:00N 50°15' W 004°12'2322.3
2020-Jul-09 15:00N 49°53' W 004°23'7221.6
2020-Jul-09 11:39N 48°44' W 004°52'321.8
2020-Jul-09 11:30N 48°41' W 004°53'1919.1
2020-Jul-09 10:30N 48°23' W 005°05'3221.2
2020-Jul-09 09:01N 47°52' W 005°06'1122.4
2020-Jul-09 08:30N 47°41' W 005°03'3422.7
2020-Jul-09 07:00N 47°07' W 004°55'2222.5
2020-Jul-09 06:01N 46°46' W 004°44'6822.8
2020-Jul-09 03:00N 45°38' W 004°25'11523.0
2020-Jul-08 22:01N 43°46' W 003°49'1912.4
2020-Jul-08 20:29N 43°28' W 003°48'4 1.3
2020-Jul-08 17:11N 43°31' W 003°46'423.5
2020-Jul-08 17:01N 43°35' W 003°46'3523.0
2020-Jul-08 15:30N 44°10' W 003°53'3523.0
2020-Jul-08 14:01N 44°44' W 004°01'1122.7
2020-Jul-08 13:31N 44°55' W 004°03'1122.9
2020-Jul-08 13:01N 45°06' W 004°05'1223.1
2020-Jul-08 12:31N 45°18' W 004°08'3523.2
2020-Jul-08 11:00N 45°52' W 004°16'13023.7
2020-Jul-08 05:31N 48°01' W 004°44'4317.2
2020-Jul-08 03:01N 48°44' W 004°38'9423.5
2020-Jul-07 23:01N 49°53' W 003°02'2221.1
2020-Jul-07 21:59N 50°03' W 002°31'2919.6
2020-Jul-07 20:30N 50°16' W 001°51'4020.1
2020-Jul-07 18:30N 50°39' W 000°59'10 4.2
2020-Jul-07 16:00N 50°49' W 001°06'0 0.0
2020-Jul-07 15:00N 50°49' W 001°06'3 3.1
2020-Jul-07 14:01N 50°46' W 001°05'1212.0
2020-Jul-07 13:00N 50°34' W 001°09'3623.4
2020-Jul-07 11:28N 50°13' W 001°55'1224.6
2020-Jul-07 10:58N 50°04' W 002°08'8524.6
2020-Jul-07 07:31N 49°12' W 003°51'5024.8
2020-Jul-07 05:30N 48°38' W 004°46'1223.8
2020-Jul-07 05:00N 48°29' W 004°58'3221.3
2020-Jul-07 03:30N 47°58' W 005°09'1223.7
2020-Jul-07 03:00N 47°46' W 005°05'7122.9
2020-Jul-06 23:53N 46°37' W 004°42'19316.2
2020-Jul-06 12:00N 43°28' W 003°48'4 3.6
2020-Jul-06 10:52N 43°31' W 003°46'29623.0
2020-Jul-05 22:00N 48°22' W 005°06'12621.0
2020-Jul-05 16:00N 50°22' W 004°09'0 0.0
2020-Jul-05 15:30N 50°22' W 004°09'6 2.2
2020-Jul-05 12:31N 50°15' W 004°09'4120.4
2020-Jul-05 10:30N 49°35' W 003°56'44 6.8
2020-Jul-05 04:01N 48°52' W 004°05'2221.5
2020-Jul-05 03:00N 49°06' W 004°30'2520.7
2020-Jul-05 01:48N 49°22' W 004°59'19514.7
2020-Jul-04 12:30N 51°50' W 008°19'0 0.0
2020-Jul-04 11:30N 51°50' W 008°19'25113.2
2020-Jul-03 16:30N 48°43' W 003°58'0 0.0
2020-Jul-03 15:54N 48°43' W 003°58'0 0.0
2020-Jul-03 15:12N 48°43' W 003°58'5 5.7
2020-Jul-03 14:22N 48°47' W 003°53'1 1.8
2020-Jul-03 13:53N 48°47' W 003°55'1 1.5
2020-Jul-03 13:27N 48°46' W 003°55'3 1.1
2020-Jul-03 10:18N 48°43' W 003°58'0 0.0
2020-Jul-03 10:00N 48°43' W 003°58'0 0.0
2020-Jul-03 09:29N 48°43' W 003°58'0 0.0
2020-Jul-03 08:51N 48°43' W 003°58'0 0.0
2020-Jul-03 08:29N 48°43' W 003°58'92 7.7
2020-Jul-02 20:30N 50°15' W 004°11'7 6.8
2020-Jul-02 19:30N 50°22' W 004°09'0 0.0
2020-Jul-02 18:30N 50°22' W 004°09'5 1.8
2020-Jul-02 16:01N 50°17' W 004°11'9521.1
2020-Jul-02 11:30N 48°46' W 004°52'1021.4
2020-Jul-02 11:00N 48°36' W 004°56'918.7
2020-Jul-02 10:30N 48°27' W 005°01'1919.0
2020-Jul-02 09:30N 48°09' W 005°09'1121.2
2020-Jul-02 09:00N 47°58' W 005°08'27719.1
2020-Jul-01 18:30N 43°28' W 003°48'  

Dump ship's entire track history